sensor_id;sensor_type;location;lat;lon;timestamp;pressure;altitude;pressure_sealevel;temperature;humidity
75697;BME280;64312;44.738;20.612;2022-12-18T00:01:20;101755.25;;;2.25;73.26
75697;BME280;64312;44.738;20.612;2022-12-18T00:03:46;101743.16;;;2.21;73.41
75697;BME280;64312;44.738;20.612;2022-12-18T00:06:13;101754.94;;;2.16;73.69
75697;BME280;64312;44.738;20.612;2022-12-18T00:08:40;101770.25;;;2.13;73.30
75697;BME280;64312;44.738;20.612;2022-12-18T00:11:08;101774.16;;;2.07;73.60
75697;BME280;64312;44.738;20.612;2022-12-18T00:13:36;101777.09;;;2.03;74.16
75697;BME280;64312;44.738;20.612;2022-12-18T00:16:10;101777.09;;;2.03;74.66
75697;BME280;64312;44.738;20.612;2022-12-18T00:18:36;101781.56;;;2.02;75.19
75697;BME280;64312;44.738;20.612;2022-12-18T00:21:04;101779.88;;;2.01;74.54
75697;BME280;64312;44.738;20.612;2022-12-18T00:23:32;101786.03;;;2.02;74.40
75697;BME280;64312;44.738;20.612;2022-12-18T00:26:03;101795.69;;;2.03;75.29
75697;BME280;64312;44.738;20.612;2022-12-18T00:28:30;101797.28;;;2.05;75.08
75697;BME280;64312;44.738;20.612;2022-12-18T00:31:03;101804.31;;;2.06;75.04
75697;BME280;64312;44.738;20.612;2022-12-18T00:33:29;101806.31;;;2.03;74.59
75697;BME280;64312;44.738;20.612;2022-12-18T00:35:54;101821.50;;;2.01;74.39
75697;BME280;64312;44.738;20.612;2022-12-18T00:38:20;101814.69;;;1.97;74.15
75697;BME280;64312;44.738;20.612;2022-12-18T00:40:48;101820.28;;;1.92;74.01
75697;BME280;64312;44.738;20.612;2022-12-18T00:43:13;101819.66;;;1.88;73.59
75697;BME280;64312;44.738;20.612;2022-12-18T00:45:39;101825.16;;;1.85;73.76
75697;BME280;64312;44.738;20.612;2022-12-18T00:48:06;101821.84;;;1.82;74.27
75697;BME280;64312;44.738;20.612;2022-12-18T00:50:31;101820.31;;;1.78;74.06
75697;BME280;64312;44.738;20.612;2022-12-18T00:52:59;101832.84;;;1.76;74.08
75697;BME280;64312;44.738;20.612;2022-12-18T00:55:25;101831.56;;;1.69;73.24
75697;BME280;64312;44.738;20.612;2022-12-18T00:57:51;101839.69;;;1.66;73.52
75697;BME280;64312;44.738;20.612;2022-12-18T01:00:18;101842.00;;;1.57;71.17
75697;BME280;64312;44.738;20.612;2022-12-18T01:02:44;101844.16;;;1.51;70.19
75697;BME280;64312;44.738;20.612;2022-12-18T01:05:11;101840.31;;;1.42;69.58
75697;BME280;64312;44.738;20.612;2022-12-18T01:07:37;101854.88;;;1.35;69.50
75697;BME280;64312;44.738;20.612;2022-12-18T01:10:04;101851.75;;;1.28;69.86
75697;BME280;64312;44.738;20.612;2022-12-18T01:12:30;101851.19;;;1.23;70.36
75697;BME280;64312;44.738;20.612;2022-12-18T01:14:56;101849.56;;;1.21;70.74
75697;BME280;64312;44.738;20.612;2022-12-18T01:17:21;101855.66;;;1.23;70.44
75697;BME280;64312;44.738;20.612;2022-12-18T01:19:47;101861.22;;;1.18;70.74
75697;BME280;64312;44.738;20.612;2022-12-18T01:22:13;101863.03;;;1.18;70.74
75697;BME280;64312;44.738;20.612;2022-12-18T01:24:39;101871.00;;;1.18;71.25
75697;BME280;64312;44.738;20.612;2022-12-18T01:27:04;101876.09;;;1.21;70.97
75697;BME280;64312;44.738;20.612;2022-12-18T01:29:30;101868.13;;;1.21;70.55
75697;BME280;64312;44.738;20.612;2022-12-18T01:31:56;101873.63;;;1.18;70.54
75697;BME280;64312;44.738;20.612;2022-12-18T01:34:23;101879.53;;;1.23;69.34
75697;BME280;64312;44.738;20.612;2022-12-18T01:36:49;101885.94;;;1.19;69.94
75697;BME280;64312;44.738;20.612;2022-12-18T01:39:18;101886.91;;;1.18;70.11
75697;BME280;64312;44.738;20.612;2022-12-18T01:41:45;101886.91;;;1.18;69.60
75697;BME280;64312;44.738;20.612;2022-12-18T01:52:46;101895.72;;;1.18;70.25
75697;BME280;64312;44.738;20.612;2022-12-18T01:55:14;101887.75;;;1.18;70.21
75697;BME280;64312;44.738;20.612;2022-12-18T01:57:41;101889.47;;;1.19;69.75
75697;BME280;64312;44.738;20.612;2022-12-18T02:00:11;101892.09;;;1.19;69.69
75697;BME280;64312;44.738;20.612;2022-12-18T02:02:45;101896.38;;;1.22;70.08
75697;BME280;64312;44.738;20.612;2022-12-18T02:05:15;101906.91;;;1.23;69.88
75697;BME280;64312;44.738;20.612;2022-12-18T02:08:02;101899.00;;;1.22;69.52
75697;BME280;64312;44.738;20.612;2022-12-18T02:19:08;101906.59;;;1.28;69.08
75697;BME280;64312;44.738;20.612;2022-12-18T02:21:44;101907.44;;;1.28;69.48
75697;BME280;64312;44.738;20.612;2022-12-18T02:27:05;101906.91;;;1.23;69.70
75697;BME280;64312;44.738;20.612;2022-12-18T02:29:49;101901.78;;;1.20;69.17
75697;BME280;64312;44.738;20.612;2022-12-18T02:32:21;101910.00;;;1.16;69.52
75697;BME280;64312;44.738;20.612;2022-12-18T02:34:50;101913.53;;;1.16;70.23
75697;BME280;64312;44.738;20.612;2022-12-18T02:37:18;101907.34;;;1.16;70.50
75697;BME280;64312;44.738;20.612;2022-12-18T02:39:48;101910.09;;;1.14;70.40
75697;BME280;64312;44.738;20.612;2022-12-18T02:42:16;101907.28;;;1.17;70.59
75697;BME280;64312;44.738;20.612;2022-12-18T02:44:44;101908.59;;;1.10;70.52
75697;BME280;64312;44.738;20.612;2022-12-18T02:47:12;101919.19;;;1.10;70.39
75697;BME280;64312;44.738;20.612;2022-12-18T02:52:39;101912.34;;;1.06;71.25
75697;BME280;64312;44.738;20.612;2022-12-18T02:58:36;101905.72;;;0.99;71.67
75697;BME280;64312;44.738;20.612;2022-12-18T03:04:01;101919.63;;;1.02;71.86
75697;BME280;64312;44.738;20.612;2022-12-18T03:06:30;101928.53;;;1.01;72.01
75697;BME280;64312;44.738;20.612;2022-12-18T03:09:10;101911.88;;;0.99;72.31
75697;BME280;64312;44.738;20.612;2022-12-18T03:11:40;101926.72;;;1.02;71.76
75697;BME280;64312;44.738;20.612;2022-12-18T03:14:29;101936.50;;;1.01;71.93
75697;BME280;64312;44.738;20.612;2022-12-18T03:17:00;101931.38;;;0.98;72.35
75697;BME280;64312;44.738;20.612;2022-12-18T03:19:28;101942.84;;;0.99;72.49
75697;BME280;64312;44.738;20.612;2022-12-18T03:21:58;101947.94;;;1.02;72.25
75697;BME280;64312;44.738;20.612;2022-12-18T03:24:31;101946.16;;;1.02;72.46
75697;BME280;64312;44.738;20.612;2022-12-18T03:27:01;101945.41;;;1.00;72.39
75697;BME280;64312;44.738;20.612;2022-12-18T03:29:35;101953.44;;;0.99;72.14
75697;BME280;64312;44.738;20.612;2022-12-18T03:32:08;101948.31;;;0.96;71.77
75697;BME280;64312;44.738;20.612;2022-12-18T03:34:38;101955.59;;;0.92;71.84
75697;BME280;64312;44.738;20.612;2022-12-18T03:37:07;101962.72;;;0.92;72.23
75697;BME280;64312;44.738;20.612;2022-12-18T03:39:34;101949.03;;;0.84;72.36
75697;BME280;64312;44.738;20.612;2022-12-18T03:42:15;101952.34;;;0.87;72.26
75697;BME280;64312;44.738;20.612;2022-12-18T03:45:10;101962.13;;;0.87;72.19
75697;BME280;64312;44.738;20.612;2022-12-18T03:50:39;101961.06;;;0.89;72.90
75697;BME280;64312;44.738;20.612;2022-12-18T03:55:42;101970.75;;;0.90;72.72
75697;BME280;64312;44.738;20.612;2022-12-18T03:58:13;101974.31;;;0.89;72.40
75697;BME280;64312;44.738;20.612;2022-12-18T04:00:54;101980.47;;;0.90;72.42
75697;BME280;64312;44.738;20.612;2022-12-18T04:03:21;101990.22;;;0.89;71.81
75697;BME280;64312;44.738;20.612;2022-12-18T04:05:50;101996.84;;;0.82;71.69
75697;BME280;64312;44.738;20.612;2022-12-18T04:08:19;101989.81;;;0.81;72.02
75697;BME280;64312;44.738;20.612;2022-12-18T04:10:54;102001.72;;;0.74;71.20
75697;BME280;64312;44.738;20.612;2022-12-18T04:13:24;101989.78;;;0.67;70.73
75697;BME280;64312;44.738;20.612;2022-12-18T04:15:53;101990.22;;;0.59;70.98
75697;BME280;64312;44.738;20.612;2022-12-18T04:18:20;101979.84;;;0.54;70.87
75697;BME280;64312;44.738;20.612;2022-12-18T04:20:47;101980.91;;;0.52;71.19
75697;BME280;64312;44.738;20.612;2022-12-18T04:23:13;101989.00;;;0.49;71.53
75697;BME280;64312;44.738;20.612;2022-12-18T04:25:39;101995.34;;;0.46;71.93
75697;BME280;64312;44.738;20.612;2022-12-18T04:28:11;102007.75;;;0.46;72.23
75697;BME280;64312;44.738;20.612;2022-12-18T04:30:38;102015.69;;;0.46;72.53
75697;BME280;64312;44.738;20.612;2022-12-18T04:33:08;102014.97;;;0.42;72.59
75697;BME280;64312;44.738;20.612;2022-12-18T04:35:34;102017.72;;;0.41;72.62
75697;BME280;64312;44.738;20.612;2022-12-18T04:37:59;102032.88;;;0.39;72.10
75697;BME280;64312;44.738;20.612;2022-12-18T04:40:26;102034.81;;;0.35;72.23
75697;BME280;64312;44.738;20.612;2022-12-18T04:42:52;102041.81;;;0.36;72.56
75697;BME280;64312;44.738;20.612;2022-12-18T04:45:17;102048.81;;;0.37;72.69
75697;BME280;64312;44.738;20.612;2022-12-18T04:47:44;102045.22;;;0.38;72.44
75697;BME280;64312;44.738;20.612;2022-12-18T04:50:09;102053.16;;;0.38;72.70
75697;BME280;64312;44.738;20.612;2022-12-18T04:52:35;102060.25;;;0.38;71.98
75697;BME280;64312;44.738;20.612;2022-12-18T04:55:01;102060.44;;;0.35;72.37
75697;BME280;64312;44.738;20.612;2022-12-18T04:57:27;102065.75;;;0.35;72.79
75697;BME280;64312;44.738;20.612;2022-12-18T04:59:52;102066.75;;;0.32;72.58
75697;BME280;64312;44.738;20.612;2022-12-18T05:02:19;102065.66;;;0.36;72.95
75697;BME280;64312;44.738;20.612;2022-12-18T05:04:44;102063.84;;;0.37;73.28
75697;BME280;64312;44.738;20.612;2022-12-18T05:07:10;102081.47;;;0.38;73.01
75697;BME280;64312;44.738;20.612;2022-12-18T05:09:35;102080.59;;;0.37;73.66
75697;BME280;64312;44.738;20.612;2022-12-18T05:12:01;102074.53;;;0.35;73.37
75697;BME280;64312;44.738;20.612;2022-12-18T05:14:28;102080.47;;;0.40;73.60
75697;BME280;64312;44.738;20.612;2022-12-18T05:16:55;102082.31;;;0.38;72.99
75697;BME280;64312;44.738;20.612;2022-12-18T05:19:20;102082.63;;;0.32;73.07
75697;BME280;64312;44.738;20.612;2022-12-18T05:21:46;102101.03;;;0.35;73.42
75697;BME280;64312;44.738;20.612;2022-12-18T05:24:12;102095.75;;;0.35;73.38
75697;BME280;64312;44.738;20.612;2022-12-18T05:26:37;102090.53;;;0.34;73.82
75697;BME280;64312;44.738;20.612;2022-12-18T05:29:03;102099.94;;;0.39;73.68
75697;BME280;64312;44.738;20.612;2022-12-18T05:31:28;102106.16;;;0.38;73.35
75697;BME280;64312;44.738;20.612;2022-12-18T05:33:54;102106.34;;;0.35;73.93
75697;BME280;64312;44.738;20.612;2022-12-18T05:36:20;102111.63;;;0.35;73.22
75697;BME280;64312;44.738;20.612;2022-12-18T05:38:46;102115.13;;;0.36;74.04
75697;BME280;64312;44.738;20.612;2022-12-18T05:41:11;102124.97;;;0.34;72.98
75697;BME280;64312;44.738;20.612;2022-12-18T05:43:40;102124.13;;;0.33;73.61
75697;BME280;64312;44.738;20.612;2022-12-18T05:46:07;102130.31;;;0.32;73.25
75697;BME280;64312;44.738;20.612;2022-12-18T05:48:34;102134.09;;;0.28;73.49
75697;BME280;64312;44.738;20.612;2022-12-18T05:51:05;102127.22;;;0.24;73.66
75697;BME280;64312;44.738;20.612;2022-12-18T05:53:31;102142.13;;;0.26;73.94
75697;BME280;64312;44.738;20.612;2022-12-18T05:56:03;102139.47;;;0.26;74.29
75697;BME280;64312;44.738;20.612;2022-12-18T05:58:29;102145.44;;;0.30;74.52
75697;BME280;64312;44.738;20.612;2022-12-18T06:00:55;102147.00;;;0.34;74.46
75697;BME280;64312;44.738;20.612;2022-12-18T06:03:21;102147.97;;;0.33;74.47
75697;BME280;64312;44.738;20.612;2022-12-18T06:05:47;102150.66;;;0.32;74.12
75697;BME280;64312;44.738;20.612;2022-12-18T06:08:13;102147.34;;;0.28;74.55
75697;BME280;64312;44.738;20.612;2022-12-18T06:10:39;102148.34;;;0.25;74.34
75697;BME280;64312;44.738;20.612;2022-12-18T06:13:06;102158.16;;;0.23;74.73
75697;BME280;64312;44.738;20.612;2022-12-18T06:15:32;102153.97;;;0.19;74.86
75697;BME280;64312;44.738;20.612;2022-12-18T06:17:58;102156.69;;;0.18;74.95
75697;BME280;64312;44.738;20.612;2022-12-18T06:20:25;102161.03;;;0.19;75.02
75697;BME280;64312;44.738;20.612;2022-12-18T06:22:54;102167.59;;;0.29;75.06
75697;BME280;64312;44.738;20.612;2022-12-18T06:25:20;102170.94;;;0.33;74.75
75697;BME280;64312;44.738;20.612;2022-12-18T06:27:47;102174.28;;;0.36;75.44
75697;BME280;64312;44.738;20.612;2022-12-18T06:30:14;102190.56;;;0.46;75.52
75697;BME280;64312;44.738;20.612;2022-12-18T06:32:40;102183.06;;;0.54;75.61
75697;BME280;64312;44.738;20.612;2022-12-18T06:35:06;102187.94;;;0.62;75.59
75697;BME280;64312;44.738;20.612;2022-12-18T06:37:31;102194.63;;;0.69;75.77
75697;BME280;64312;44.738;20.612;2022-12-18T06:39:57;102194.28;;;0.75;75.39
75697;BME280;64312;44.738;20.612;2022-12-18T06:42:24;102199.34;;;0.79;74.94
75697;BME280;64312;44.738;20.612;2022-12-18T06:44:49;102196.53;;;0.82;75.65
75697;BME280;64312;44.738;20.612;2022-12-18T06:47:15;102193.72;;;0.86;74.88
75697;BME280;64312;44.738;20.612;2022-12-18T06:49:41;102210.72;;;0.81;73.95
75697;BME280;64312;44.738;20.612;2022-12-18T06:52:06;102212.94;;;0.73;73.65
75697;BME280;64312;44.738;20.612;2022-12-18T06:54:32;102221.34;;;0.64;73.99
75697;BME280;64312;44.738;20.612;2022-12-18T06:56:57;102220.50;;;0.64;73.93
75697;BME280;64312;44.738;20.612;2022-12-18T06:59:23;102232.66;;;0.68;74.30
75697;BME280;64312;44.738;20.612;2022-12-18T07:01:48;102226.44;;;0.69;73.64
75697;BME280;64312;44.738;20.612;2022-12-18T07:04:14;102223.16;;;0.64;74.16
75697;BME280;64312;44.738;20.612;2022-12-18T07:06:39;102228.63;;;0.61;73.82
75697;BME280;64312;44.738;20.612;2022-12-18T07:09:05;102238.59;;;0.56;74.06
75697;BME280;64312;44.738;20.612;2022-12-18T07:11:32;102240.91;;;0.46;73.70
75697;BME280;64312;44.738;20.612;2022-12-18T07:13:58;102242.91;;;0.41;74.45
75697;BME280;64312;44.738;20.612;2022-12-18T07:16:24;102246.75;;;0.35;74.69
75697;BME280;64312;44.738;20.612;2022-12-18T07:18:50;102253.13;;;0.31;74.75
75697;BME280;64312;44.738;20.612;2022-12-18T07:21:18;102259.53;;;0.27;74.58
75697;BME280;64312;44.738;20.612;2022-12-18T07:23:44;102254.69;;;0.18;74.98
75697;BME280;64312;44.738;20.612;2022-12-18T07:26:14;102263.09;;;0.09;74.96
75697;BME280;64312;44.738;20.612;2022-12-18T07:28:41;102264.34;;;0.02;75.18
75697;BME280;64312;44.738;20.612;2022-12-18T07:31:13;102270.72;;;-0.03;75.87
75697;BME280;64312;44.738;20.612;2022-12-18T07:33:39;102266.44;;;-0.05;76.12
75697;BME280;64312;44.738;20.612;2022-12-18T07:36:06;102274.69;;;-0.11;76.53
75697;BME280;64312;44.738;20.612;2022-12-18T07:38:34;102268.97;;;-0.21;76.29
75697;BME280;64312;44.738;20.612;2022-12-18T07:41:00;102264.13;;;-0.30;76.74
75697;BME280;64312;44.738;20.612;2022-12-18T07:43:27;102268.78;;;-0.35;76.67
75697;BME280;64312;44.738;20.612;2022-12-18T07:45:52;102265.56;;;-0.42;77.12
75697;BME280;64312;44.738;20.612;2022-12-18T07:48:18;102266.28;;;-0.38;77.40
75697;BME280;64312;44.738;20.612;2022-12-18T07:50:43;102277.78;;;-0.39;77.72
75697;BME280;64312;44.738;20.612;2022-12-18T07:53:09;102282.28;;;-0.41;77.16
75697;BME280;64312;44.738;20.612;2022-12-18T07:55:34;102286.00;;;-0.45;77.26
75697;BME280;64312;44.738;20.612;2022-12-18T07:58:02;102286.09;;;-0.47;77.56
75697;BME280;64312;44.738;20.612;2022-12-18T08:00:28;102288.66;;;-0.45;77.60
75697;BME280;64312;44.738;20.612;2022-12-18T08:02:54;102281.53;;;-0.43;78.14
75697;BME280;64312;44.738;20.612;2022-12-18T08:05:19;102275.44;;;-0.45;77.40
75697;BME280;64312;44.738;20.612;2022-12-18T08:07:46;102280.44;;;-0.39;78.05
75697;BME280;64312;44.738;20.612;2022-12-18T08:10:12;102285.00;;;-0.24;78.85
75697;BME280;64312;44.738;20.612;2022-12-18T08:12:38;102289.50;;;0.10;82.74
75697;BME280;64312;44.738;20.612;2022-12-18T08:15:04;102285.63;;;0.52;80.57
75697;BME280;64312;44.738;20.612;2022-12-18T08:17:30;102287.25;;;0.37;77.10
75697;BME280;64312;44.738;20.612;2022-12-18T08:19:56;102297.56;;;0.26;77.62
75697;BME280;64312;44.738;20.612;2022-12-18T08:22:21;102298.75;;;0.19;75.93
75697;BME280;64312;44.738;20.612;2022-12-18T08:24:47;102307.50;;;0.21;77.36
75697;BME280;64312;44.738;20.612;2022-12-18T08:27:12;102310.78;;;0.26;77.54
75697;BME280;64312;44.738;20.612;2022-12-18T08:29:38;102302.28;;;0.37;78.16
75697;BME280;64312;44.738;20.612;2022-12-18T08:32:04;102311.50;;;0.47;78.15
75697;BME280;64312;44.738;20.612;2022-12-18T08:34:30;102317.44;;;0.52;77.12
75697;BME280;64312;44.738;20.612;2022-12-18T08:36:55;102314.13;;;0.64;76.63
75697;BME280;64312;44.738;20.612;2022-12-18T08:39:21;102312.63;;;0.76;76.20
75697;BME280;64312;44.738;20.612;2022-12-18T08:41:47;102307.72;;;0.86;74.58
75697;BME280;64312;44.738;20.612;2022-12-18T08:44:33;102318.09;;;0.90;73.04
75697;BME280;64312;44.738;20.612;2022-12-18T08:47:05;102304.13;;;0.87;73.50
75697;BME280;64312;44.738;20.612;2022-12-18T08:49:31;102316.22;;;0.92;73.77
75697;BME280;64312;44.738;20.612;2022-12-18T08:51:57;102309.78;;;0.96;74.18
75697;BME280;64312;44.738;20.612;2022-12-18T08:54:23;102320.06;;;1.02;74.42
75697;BME280;64312;44.738;20.612;2022-12-18T08:56:50;102314.44;;;1.08;74.85
75697;BME280;64312;44.738;20.612;2022-12-18T08:59:16;102324.69;;;1.16;74.19
75697;BME280;64312;44.738;20.612;2022-12-18T09:01:42;102329.56;;;1.24;72.78
75697;BME280;64312;44.738;20.612;2022-12-18T09:04:09;102332.22;;;1.24;71.85
75697;BME280;64312;44.738;20.612;2022-12-18T09:06:35;102324.06;;;1.27;72.76
75697;BME280;64312;44.738;20.612;2022-12-18T09:09:00;102331.72;;;1.33;71.81
75697;BME280;64312;44.738;20.612;2022-12-18T09:11:27;102328.06;;;1.35;71.20
75697;BME280;64312;44.738;20.612;2022-12-18T09:13:54;102329.66;;;1.38;71.57
75697;BME280;64312;44.738;20.612;2022-12-18T09:16:20;102325.13;;;1.40;70.68
75697;BME280;64312;44.738;20.612;2022-12-18T09:18:47;102327.63;;;1.43;70.55
75697;BME280;64312;44.738;20.612;2022-12-18T09:21:18;102311.78;;;1.42;70.49
75697;BME280;64312;44.738;20.612;2022-12-18T09:23:49;102315.03;;;1.47;70.55
75697;BME280;64312;44.738;20.612;2022-12-18T09:26:15;102319.34;;;1.49;70.60
75697;BME280;64312;44.738;20.612;2022-12-18T09:28:41;102309.28;;;1.39;70.49
75697;BME280;64312;44.738;20.612;2022-12-18T09:31:08;102322.47;;;1.40;69.22
75697;BME280;64312;44.738;20.612;2022-12-18T09:33:36;102324.38;;;1.38;70.24
75697;BME280;64312;44.738;20.612;2022-12-18T09:36:06;102319.41;;;1.48;70.90
75697;BME280;64312;44.738;20.612;2022-12-18T09:38:32;102311.28;;;1.51;70.03
75697;BME280;64312;44.738;20.612;2022-12-18T09:41:50;102318.81;;;1.58;69.86
75697;BME280;64312;44.738;20.612;2022-12-18T09:43:58;102327.06;;;1.70;70.04
75697;BME280;64312;44.738;20.612;2022-12-18T09:46:32;102340.94;;;1.75;69.62
75697;BME280;64312;44.738;20.612;2022-12-18T09:49:02;102322.91;;;1.80;70.77
75697;BME280;64312;44.738;20.612;2022-12-18T09:51:50;102319.56;;;1.92;70.77
75697;BME280;64312;44.738;20.612;2022-12-18T09:54:39;102325.03;;;2.05;69.72
75697;BME280;64312;44.738;20.612;2022-12-18T09:57:21;102323.69;;;2.13;69.17
75697;BME280;64312;44.738;20.612;2022-12-18T09:59:57;102319.03;;;2.17;68.48
75697;BME280;64312;44.738;20.612;2022-12-18T10:02:25;102322.28;;;2.22;67.84
75697;BME280;64312;44.738;20.612;2022-12-18T10:05:10;102330.34;;;2.21;67.23
75697;BME280;64312;44.738;20.612;2022-12-18T10:10:29;102315.72;;;1.98;67.31
75697;BME280;64312;44.738;20.612;2022-12-18T10:15:49;102321.41;;;1.76;68.34
75697;BME280;64312;44.738;20.612;2022-12-18T10:21:17;102325.59;;;1.96;68.21
75697;BME280;64312;44.738;20.612;2022-12-18T10:24:17;102328.16;;;2.13;67.81
75697;BME280;64312;44.738;20.612;2022-12-18T10:26:46;102323.25;;;2.21;67.95
75697;BME280;64312;44.738;20.612;2022-12-18T10:29:13;102330.06;;;2.25;68.46
75697;BME280;64312;44.738;20.612;2022-12-18T10:31:40;102328.44;;;2.23;67.97
75697;BME280;64312;44.738;20.612;2022-12-18T10:34:10;102329.75;;;2.15;65.69
75697;BME280;64312;44.738;20.612;2022-12-18T10:36:37;102321.44;;;2.06;66.55
75697;BME280;64312;44.738;20.612;2022-12-18T10:41:41;102330.28;;;2.06;66.76
75697;BME280;64312;44.738;20.612;2022-12-18T10:44:22;102323.00;;;2.10;67.48
75697;BME280;64312;44.738;20.612;2022-12-18T10:47:03;102322.03;;;2.11;66.80
75697;BME280;64312;44.738;20.612;2022-12-18T10:49:32;102321.28;;;2.09;67.80
75697;BME280;64312;44.738;20.612;2022-12-18T10:52:17;102330.28;;;2.06;66.55
75697;BME280;64312;44.738;20.612;2022-12-18T10:54:52;102325.75;;;1.93;65.31
75697;BME280;64312;44.738;20.612;2022-12-18T10:59:54;102330.13;;;1.78;66.02
75697;BME280;64312;44.738;20.612;2022-12-18T11:02:35;102342.03;;;1.71;65.86
75697;BME280;64312;44.738;20.612;2022-12-18T11:05:02;102332.59;;;1.65;67.35
75697;BME280;64312;44.738;20.612;2022-12-18T11:07:47;102333.72;;;1.77;67.81
75697;BME280;64312;44.738;20.612;2022-12-18T11:10:19;102335.84;;;1.86;67.98
75697;BME280;64312;44.738;20.612;2022-12-18T11:12:45;102329.63;;;1.87;66.33
75697;BME280;64312;44.738;20.612;2022-12-18T11:15:27;102334.06;;;1.86;66.89
75697;BME280;64312;44.738;20.612;2022-12-18T11:17:55;102332.63;;;1.81;67.04
75697;BME280;64312;44.738;20.612;2022-12-18T11:20:27;102336.47;;;1.75;67.46
75697;BME280;64312;44.738;20.612;2022-12-18T11:22:57;102339.13;;;1.75;68.02
75697;BME280;64312;44.738;20.612;2022-12-18T11:25:24;102341.84;;;1.74;67.46
75697;BME280;64312;44.738;20.612;2022-12-18T11:28:35;102335.97;;;1.69;67.57
75697;BME280;64312;44.738;20.612;2022-12-18T11:31:18;102325.41;;;1.67;68.22
75697;BME280;64312;44.738;20.612;2022-12-18T11:36:22;102326.63;;;1.77;67.91
75697;BME280;64312;44.738;20.612;2022-12-18T11:38:49;102316.69;;;1.81;68.34
75697;BME280;64312;44.738;20.612;2022-12-18T11:44:15;102307.59;;;2.01;67.18
75697;BME280;64312;44.738;20.612;2022-12-18T11:46:50;102301.06;;;2.06;65.76
75697;BME280;64312;44.738;20.612;2022-12-18T11:51:58;102307.91;;;2.10;67.20
75697;BME280;64312;44.738;20.612;2022-12-18T11:54:26;102306.94;;;2.11;66.02
75697;BME280;64312;44.738;20.612;2022-12-18T11:57:18;102303.34;;;2.12;66.14
75697;BME280;64312;44.738;20.612;2022-12-18T12:08:21;102311.22;;;2.30;64.62
75697;BME280;64312;44.738;20.612;2022-12-18T12:16:26;102310.44;;;2.28;65.46
75697;BME280;64312;44.738;20.612;2022-12-18T12:22:00;102315.78;;;2.12;65.95
75697;BME280;64312;44.738;20.612;2022-12-18T12:36:12;102321.22;;;1.79;67.42
75697;BME280;64312;44.738;20.612;2022-12-18T12:38:42;102310.34;;;1.83;67.57
75697;BME280;64312;44.738;20.612;2022-12-18T12:41:14;102317.88;;;1.91;67.61
75697;BME280;64312;44.738;20.612;2022-12-18T12:44:05;102306.66;;;2.02;67.29
75697;BME280;64312;44.738;20.612;2022-12-18T12:46:37;102306.00;;;2.12;66.82
75697;BME280;64312;44.738;20.612;2022-12-18T12:49:04;102313.38;;;2.23;67.12
75697;BME280;64312;44.738;20.612;2022-12-18T12:51:37;102289.72;;;2.18;65.94
75697;BME280;64312;44.738;20.612;2022-12-18T12:54:09;102305.03;;;2.29;66.15
75697;BME280;64312;44.738;20.612;2022-12-18T12:56:51;102309.31;;;2.32;65.94
75697;BME280;64312;44.738;20.612;2022-12-18T13:04:52;102313.19;;;2.26;66.40
75697;BME280;64312;44.738;20.612;2022-12-18T13:07:38;102321.84;;;2.30;67.22
75697;BME280;64312;44.738;20.612;2022-12-18T13:25:56;102353.78;;;2.44;66.90
75697;BME280;64312;44.738;20.612;2022-12-18T13:34:26;102364.06;;;2.50;65.92
75697;BME280;64312;44.738;20.612;2022-12-18T13:36:56;102363.03;;;2.53;65.77
75697;BME280;64312;44.738;20.612;2022-12-18T13:39:33;102361.41;;;2.50;65.72
75697;BME280;64312;44.738;20.612;2022-12-18T13:44:33;102373.84;;;2.50;65.82
75697;BME280;64312;44.738;20.612;2022-12-18T13:47:02;102371.47;;;2.45;65.63
75697;BME280;64312;44.738;20.612;2022-12-18T13:49:38;102382.59;;;2.36;65.97
75697;BME280;64312;44.738;20.612;2022-12-18T13:52:17;102368.91;;;2.28;65.81
75697;BME280;64312;44.738;20.612;2022-12-18T13:54:50;102377.75;;;2.28;66.08
75697;BME280;64312;44.738;20.612;2022-12-18T13:57:29;102363.09;;;2.21;64.96
75697;BME280;64312;44.738;20.612;2022-12-18T13:59:56;102374.31;;;2.26;66.04
75697;BME280;64312;44.738;20.612;2022-12-18T14:02:27;102369.94;;;2.25;66.16
75697;BME280;64312;44.738;20.612;2022-12-18T14:04:54;102372.78;;;2.22;65.88
75697;BME280;64312;44.738;20.612;2022-12-18T14:07:24;102373.72;;;2.21;66.31
75697;BME280;64312;44.738;20.612;2022-12-18T14:10:00;102385.22;;;2.22;66.62
75697;BME280;64312;44.738;20.612;2022-12-18T14:12:33;102376.28;;;2.23;66.47
75697;BME280;64312;44.738;20.612;2022-12-18T14:15:31;102381.59;;;2.23;66.53
75697;BME280;64312;44.738;20.612;2022-12-18T14:18:24;102384.94;;;2.26;66.43
75697;BME280;64312;44.738;20.612;2022-12-18T14:20:52;102384.94;;;2.26;65.76
75697;BME280;64312;44.738;20.612;2022-12-18T14:23:33;102386.66;;;2.27;66.66
75697;BME280;64312;44.738;20.612;2022-12-18T14:26:01;102385.81;;;2.27;66.15
75697;BME280;64312;44.738;20.612;2022-12-18T14:28:27;102380.66;;;2.24;66.68
75697;BME280;64312;44.738;20.612;2022-12-18T14:30:53;102386.56;;;2.29;66.35
75697;BME280;64312;44.738;20.612;2022-12-18T14:33:24;102391.19;;;2.25;66.69
75697;BME280;64312;44.738;20.612;2022-12-18T14:36:03;102392.13;;;2.24;66.54
75697;BME280;64312;44.738;20.612;2022-12-18T14:38:36;102393.09;;;2.23;66.54
75697;BME280;64312;44.738;20.612;2022-12-18T14:41:12;102406.03;;;2.29;67.04
75697;BME280;64312;44.738;20.612;2022-12-18T14:43:40;102400.91;;;2.26;66.74
75697;BME280;64312;44.738;20.612;2022-12-18T14:49:30;102412.72;;;2.21;67.17
75697;BME280;64312;44.738;20.612;2022-12-18T14:52:01;102409.47;;;2.15;66.94
75697;BME280;64312;44.738;20.612;2022-12-18T14:54:28;102415.53;;;2.17;66.99
75697;BME280;64312;44.738;20.612;2022-12-18T14:57:03;102408.53;;;2.16;66.75
75697;BME280;64312;44.738;20.612;2022-12-18T14:59:30;102414.59;;;2.18;67.42
75697;BME280;64312;44.738;20.612;2022-12-18T15:02:19;102413.69;;;2.20;67.52